Weldon, California
Current Conditions -  °F | °C
As of 9:56 PM on Saturday 22 Nov 2014 (Local Time) from KNID Reporting Station
Clear Clear  
Wind Chill: 50°   Ceiling: Unl
Heat Index: 50°   Visibility: 10mi
Dew Point: 31°   Wind: 5mph
Humidity: 48%   Direction: NA
Pressure: 29.94"   Gusts: NA
Location:  35.67°N, 118.29°W
Report Text: KNID 230556Z AUTO VRB04KT 10SM CLR 10/M01 A2994 RMK AO2 SLP137 T01001006 10189 20100 53015 $
Loading
Personal Weather Stations






























Interactive Weather Map New forecast layout! Learn more

10-Day Weather Forecast

Advertisements
Track Severe Weather on mobile